sensor_id;sensor_type;location;lat;lon;timestamp;temperature;humidity
37242;DHT22;23135;51.078;12.108;2023-07-29T00:01:11;18.60;99.90
37242;DHT22;23135;51.078;12.108;2023-07-29T00:03:37;18.50;99.90
37242;DHT22;23135;51.078;12.108;2023-07-29T00:06:03;18.50;99.90
37242;DHT22;23135;51.078;12.108;2023-07-29T00:08:28;18.40;99.90
37242;DHT22;23135;51.078;12.108;2023-07-29T00:10:54;18.40;99.90
37242;DHT22;23135;51.078;12.108;2023-07-29T00:13:19;18.40;99.90
37242;DHT22;23135;51.078;12.108;2023-07-29T00:15:45;18.40;99.90
37242;DHT22;23135;51.078;12.108;2023-07-29T00:18:11;18.40;99.90
37242;DHT22;23135;51.078;12.108;2023-07-29T00:20:36;18.40;99.90
37242;DHT22;23135;51.078;12.108;2023-07-29T00:23:02;18.40;99.90
37242;DHT22;23135;51.078;12.108;2023-07-29T00:25:28;18.40;99.90
37242;DHT22;23135;51.078;12.108;2023-07-29T00:27:57;18.30;99.90
37242;DHT22;23135;51.078;12.108;2023-07-29T00:30:22;18.40;99.90
37242;DHT22;23135;51.078;12.108;2023-07-29T00:32:48;18.30;99.90
37242;DHT22;23135;51.078;12.108;2023-07-29T00:35:13;18.30;99.90
37242;DHT22;23135;51.078;12.108;2023-07-29T00:37:39;18.50;99.90
37242;DHT22;23135;51.078;12.108;2023-07-29T00:40:19;18.50;99.90
37242;DHT22;23135;51.078;12.108;2023-07-29T00:42:44;18.60;99.90
37242;DHT22;23135;51.078;12.108;2023-07-29T00:45:10;18.60;99.90
37242;DHT22;23135;51.078;12.108;2023-07-29T00:47:37;18.50;99.90
37242;DHT22;23135;51.078;12.108;2023-07-29T00:50:03;18.50;99.90
37242;DHT22;23135;51.078;12.108;2023-07-29T00:52:28;18.60;99.90
37242;DHT22;23135;51.078;12.108;2023-07-29T00:54:54;18.60;99.90
37242;DHT22;23135;51.078;12.108;2023-07-29T00:57:20;18.60;99.90
37242;DHT22;23135;51.078;12.108;2023-07-29T00:59:47;18.50;99.90
37242;DHT22;23135;51.078;12.108;2023-07-29T01:02:12;18.50;99.90
37242;DHT22;23135;51.078;12.108;2023-07-29T01:04:38;18.50;99.90
37242;DHT22;23135;51.078;12.108;2023-07-29T01:07:14;18.50;99.90
37242;DHT22;23135;51.078;12.108;2023-07-29T01:18:22;18.40;99.90
37242;DHT22;23135;51.078;12.108;2023-07-29T01:20:48;18.50;99.90
37242;DHT22;23135;51.078;12.108;2023-07-29T01:23:35;18.50;99.90
37242;DHT22;23135;51.078;12.108;2023-07-29T01:26:02;18.60;99.90
37242;DHT22;23135;51.078;12.108;2023-07-29T01:28:28;18.60;99.90
37242;DHT22;23135;51.078;12.108;2023-07-29T01:31:09;18.80;99.90
37242;DHT22;23135;51.078;12.108;2023-07-29T01:33:40;18.80;99.90
37242;DHT22;23135;51.078;12.108;2023-07-29T01:36:12;18.90;99.90
37242;DHT22;23135;51.078;12.108;2023-07-29T01:38:41;18.90;99.90
37242;DHT22;23135;51.078;12.108;2023-07-29T01:41:08;19.00;99.90
37242;DHT22;23135;51.078;12.108;2023-07-29T01:43:34;19.10;99.90
37242;DHT22;23135;51.078;12.108;2023-07-29T01:46:04;19.10;99.90
37242;DHT22;23135;51.078;12.108;2023-07-29T01:48:30;19.10;99.90
37242;DHT22;23135;51.078;12.108;2023-07-29T01:50:57;19.10;99.90
37242;DHT22;23135;51.078;12.108;2023-07-29T01:53:23;19.10;99.90
37242;DHT22;23135;51.078;12.108;2023-07-29T01:55:49;19.10;99.90
37242;DHT22;23135;51.078;12.108;2023-07-29T01:58:14;19.00;99.90
37242;DHT22;23135;51.078;12.108;2023-07-29T02:00:40;19.00;99.90
37242;DHT22;23135;51.078;12.108;2023-07-29T02:03:06;19.00;99.90
37242;DHT22;23135;51.078;12.108;2023-07-29T02:05:31;19.00;99.90
37242;DHT22;23135;51.078;12.108;2023-07-29T02:07:57;19.00;99.90
37242;DHT22;23135;51.078;12.108;2023-07-29T02:10:23;19.00;99.90
37242;DHT22;23135;51.078;12.108;2023-07-29T02:12:48;19.00;99.90
37242;DHT22;23135;51.078;12.108;2023-07-29T02:15:14;19.00;99.90
37242;DHT22;23135;51.078;12.108;2023-07-29T02:17:41;19.00;99.90
37242;DHT22;23135;51.078;12.108;2023-07-29T02:20:07;19.00;99.90
37242;DHT22;23135;51.078;12.108;2023-07-29T02:22:33;19.00;99.90
37242;DHT22;23135;51.078;12.108;2023-07-29T02:24:59;19.00;99.90
37242;DHT22;23135;51.078;12.108;2023-07-29T02:27:26;18.90;99.90
37242;DHT22;23135;51.078;12.108;2023-07-29T02:29:53;18.90;99.90
37242;DHT22;23135;51.078;12.108;2023-07-29T02:32:18;18.80;99.90
37242;DHT22;23135;51.078;12.108;2023-07-29T02:34:44;18.70;99.90
37242;DHT22;23135;51.078;12.108;2023-07-29T02:37:10;18.70;99.90
37242;DHT22;23135;51.078;12.108;2023-07-29T02:39:36;18.60;99.90
37242;DHT22;23135;51.078;12.108;2023-07-29T02:42:02;18.60;99.90
37242;DHT22;23135;51.078;12.108;2023-07-29T02:44:27;18.50;99.90
37242;DHT22;23135;51.078;12.108;2023-07-29T02:46:53;18.40;99.90
37242;DHT22;23135;51.078;12.108;2023-07-29T02:49:21;18.40;99.90
37242;DHT22;23135;51.078;12.108;2023-07-29T02:51:47;18.40;99.90
37242;DHT22;23135;51.078;12.108;2023-07-29T02:54:12;18.30;99.90
37242;DHT22;23135;51.078;12.108;2023-07-29T02:56:38;18.20;99.90
37242;DHT22;23135;51.078;12.108;2023-07-29T02:59:03;18.20;99.90
37242;DHT22;23135;51.078;12.108;2023-07-29T03:01:30;18.10;99.90
37242;DHT22;23135;51.078;12.108;2023-07-29T03:03:56;18.00;99.90
37242;DHT22;23135;51.078;12.108;2023-07-29T03:06:22;18.00;99.90
37242;DHT22;23135;51.078;12.108;2023-07-29T03:08:47;18.00;99.90
37242;DHT22;23135;51.078;12.108;2023-07-29T03:11:15;17.90;99.90
37242;DHT22;23135;51.078;12.108;2023-07-29T03:13:41;17.90;99.90
37242;DHT22;23135;51.078;12.108;2023-07-29T03:16:12;17.80;99.90
37242;DHT22;23135;51.078;12.108;2023-07-29T03:18:39;17.80;99.90
37242;DHT22;23135;51.078;12.108;2023-07-29T03:21:05;17.80;99.90
37242;DHT22;23135;51.078;12.108;2023-07-29T03:23:33;17.80;99.90
37242;DHT22;23135;51.078;12.108;2023-07-29T03:26:00;17.80;99.90
37242;DHT22;23135;51.078;12.108;2023-07-29T03:28:30;17.80;99.90
37242;DHT22;23135;51.078;12.108;2023-07-29T03:30:56;17.70;99.90
37242;DHT22;23135;51.078;12.108;2023-07-29T03:33:22;17.70;99.90
37242;DHT22;23135;51.078;12.108;2023-07-29T03:35:48;17.70;99.90
37242;DHT22;23135;51.078;12.108;2023-07-29T03:38:14;17.60;99.90
37242;DHT22;23135;51.078;12.108;2023-07-29T03:40:40;17.50;99.90
37242;DHT22;23135;51.078;12.108;2023-07-29T03:43:06;17.50;99.90
37242;DHT22;23135;51.078;12.108;2023-07-29T03:45:32;17.50;99.90
37242;DHT22;23135;51.078;12.108;2023-07-29T03:47:58;17.40;99.90
37242;DHT22;23135;51.078;12.108;2023-07-29T03:50:23;17.40;99.90
37242;DHT22;23135;51.078;12.108;2023-07-29T03:52:50;17.40;99.90
37242;DHT22;23135;51.078;12.108;2023-07-29T03:55:15;17.40;99.90
37242;DHT22;23135;51.078;12.108;2023-07-29T03:57:41;17.40;99.90
37242;DHT22;23135;51.078;12.108;2023-07-29T04:00:07;17.50;99.90
37242;DHT22;23135;51.078;12.108;2023-07-29T04:02:34;17.50;99.90
37242;DHT22;23135;51.078;12.108;2023-07-29T04:05:03;17.50;99.90
37242;DHT22;23135;51.078;12.108;2023-07-29T04:07:29;17.50;99.90
37242;DHT22;23135;51.078;12.108;2023-07-29T04:09:54;17.50;99.90
37242;DHT22;23135;51.078;12.108;2023-07-29T04:12:20;17.40;99.90
37242;DHT22;23135;51.078;12.108;2023-07-29T04:14:47;17.40;99.90
37242;DHT22;23135;51.078;12.108;2023-07-29T04:17:12;17.40;99.90
37242;DHT22;23135;51.078;12.108;2023-07-29T04:19:38;17.40;99.90
37242;DHT22;23135;51.078;12.108;2023-07-29T04:22:04;17.40;99.90
37242;DHT22;23135;51.078;12.108;2023-07-29T04:24:29;17.40;99.90
37242;DHT22;23135;51.078;12.108;2023-07-29T04:26:55;17.30;99.90
37242;DHT22;23135;51.078;12.108;2023-07-29T04:29:21;17.40;99.90
37242;DHT22;23135;51.078;12.108;2023-07-29T04:31:48;17.40;99.90
37242;DHT22;23135;51.078;12.108;2023-07-29T04:34:14;17.50;99.90
37242;DHT22;23135;51.078;12.108;2023-07-29T04:36:40;17.60;99.90
37242;DHT22;23135;51.078;12.108;2023-07-29T04:39:05;17.60;99.90
37242;DHT22;23135;51.078;12.108;2023-07-29T04:41:31;17.70;99.90
37242;DHT22;23135;51.078;12.108;2023-07-29T04:43:56;17.80;99.90
37242;DHT22;23135;51.078;12.108;2023-07-29T04:46:22;17.90;99.90
37242;DHT22;23135;51.078;12.108;2023-07-29T04:48:47;18.00;99.90
37242;DHT22;23135;51.078;12.108;2023-07-29T04:51:13;18.00;99.90
37242;DHT22;23135;51.078;12.108;2023-07-29T04:53:39;18.20;99.90
37242;DHT22;23135;51.078;12.108;2023-07-29T04:56:04;18.20;99.90
37242;DHT22;23135;51.078;12.108;2023-07-29T04:58:30;18.30;99.90
37242;DHT22;23135;51.078;12.108;2023-07-29T05:00:59;18.40;99.90
37242;DHT22;23135;51.078;12.108;2023-07-29T05:03:25;18.50;99.90
37242;DHT22;23135;51.078;12.108;2023-07-29T05:05:51;18.60;99.90
37242;DHT22;23135;51.078;12.108;2023-07-29T05:08:18;18.60;99.90
37242;DHT22;23135;51.078;12.108;2023-07-29T05:10:44;18.70;99.90
37242;DHT22;23135;51.078;12.108;2023-07-29T05:13:13;18.70;99.90
37242;DHT22;23135;51.078;12.108;2023-07-29T05:15:39;18.70;99.90
37242;DHT22;23135;51.078;12.108;2023-07-29T05:18:04;18.80;99.90
37242;DHT22;23135;51.078;12.108;2023-07-29T05:20:30;18.90;99.90
37242;DHT22;23135;51.078;12.108;2023-07-29T05:22:55;18.90;99.90
37242;DHT22;23135;51.078;12.108;2023-07-29T05:25:21;19.00;99.90
37242;DHT22;23135;51.078;12.108;2023-07-29T05:27:47;19.00;99.90
37242;DHT22;23135;51.078;12.108;2023-07-29T05:30:12;19.10;99.90
37242;DHT22;23135;51.078;12.108;2023-07-29T05:32:38;19.10;99.90
37242;DHT22;23135;51.078;12.108;2023-07-29T05:35:04;19.20;99.90
37242;DHT22;23135;51.078;12.108;2023-07-29T05:37:29;19.30;99.90
37242;DHT22;23135;51.078;12.108;2023-07-29T05:39:55;19.50;99.90
37242;DHT22;23135;51.078;12.108;2023-07-29T05:42:21;19.80;99.90
37242;DHT22;23135;51.078;12.108;2023-07-29T05:44:46;20.10;99.90
37242;DHT22;23135;51.078;12.108;2023-07-29T05:47:12;20.30;99.90
37242;DHT22;23135;51.078;12.108;2023-07-29T05:49:37;20.60;99.90
37242;DHT22;23135;51.078;12.108;2023-07-29T05:52:03;20.70;99.90
37242;DHT22;23135;51.078;12.108;2023-07-29T05:54:29;20.80;99.90
37242;DHT22;23135;51.078;12.108;2023-07-29T05:56:54;20.70;99.90
37242;DHT22;23135;51.078;12.108;2023-07-29T05:59:20;20.60;99.90
37242;DHT22;23135;51.078;12.108;2023-07-29T06:01:45;20.50;99.90
37242;DHT22;23135;51.078;12.108;2023-07-29T06:04:11;20.50;99.90
37242;DHT22;23135;51.078;12.108;2023-07-29T06:06:36;20.60;99.90
37242;DHT22;23135;51.078;12.108;2023-07-29T06:09:02;20.70;99.90
37242;DHT22;23135;51.078;12.108;2023-07-29T06:11:28;20.80;99.90
37242;DHT22;23135;51.078;12.108;2023-07-29T06:13:53;20.60;99.90
37242;DHT22;23135;51.078;12.108;2023-07-29T06:16:19;20.50;99.90
37242;DHT22;23135;51.078;12.108;2023-07-29T06:18:45;20.60;99.90
37242;DHT22;23135;51.078;12.108;2023-07-29T06:21:11;21.00;99.90
37242;DHT22;23135;51.078;12.108;2023-07-29T06:23:44;21.50;99.90
37242;DHT22;23135;51.078;12.108;2023-07-29T06:26:10;21.50;99.90
37242;DHT22;23135;51.078;12.108;2023-07-29T06:28:36;21.50;99.90
37242;DHT22;23135;51.078;12.108;2023-07-29T06:31:01;21.70;99.90
37242;DHT22;23135;51.078;12.108;2023-07-29T06:33:27;21.90;99.90
37242;DHT22;23135;51.078;12.108;2023-07-29T06:35:52;22.00;99.90
37242;DHT22;23135;51.078;12.108;2023-07-29T06:38:18;22.00;99.90
37242;DHT22;23135;51.078;12.108;2023-07-29T06:40:47;21.90;99.90
37242;DHT22;23135;51.078;12.108;2023-07-29T06:43:13;22.00;99.90
37242;DHT22;23135;51.078;12.108;2023-07-29T06:45:39;22.00;99.90
37242;DHT22;23135;51.078;12.108;2023-07-29T06:48:04;22.10;99.90
37242;DHT22;23135;51.078;12.108;2023-07-29T06:50:30;22.10;99.90
37242;DHT22;23135;51.078;12.108;2023-07-29T06:52:55;22.10;99.90
37242;DHT22;23135;51.078;12.108;2023-07-29T06:55:21;22.20;99.90
37242;DHT22;23135;51.078;12.108;2023-07-29T06:57:47;22.20;99.90
37242;DHT22;23135;51.078;12.108;2023-07-29T07:00:12;22.00;99.90
37242;DHT22;23135;51.078;12.108;2023-07-29T07:02:38;21.90;99.90
37242;DHT22;23135;51.078;12.108;2023-07-29T07:05:04;22.00;99.90
37242;DHT22;23135;51.078;12.108;2023-07-29T07:07:30;22.10;99.90
37242;DHT22;23135;51.078;12.108;2023-07-29T07:09:56;22.40;99.90
37242;DHT22;23135;51.078;12.108;2023-07-29T07:12:22;22.50;99.90
37242;DHT22;23135;51.078;12.108;2023-07-29T07:14:47;22.40;99.90
37242;DHT22;23135;51.078;12.108;2023-07-29T07:17:13;22.40;99.90
37242;DHT22;23135;51.078;12.108;2023-07-29T07:19:39;22.30;99.90
37242;DHT22;23135;51.078;12.108;2023-07-29T07:22:05;22.30;99.90
37242;DHT22;23135;51.078;12.108;2023-07-29T07:24:30;22.20;99.90
37242;DHT22;23135;51.078;12.108;2023-07-29T07:26:56;22.20;99.90
37242;DHT22;23135;51.078;12.108;2023-07-29T07:29:22;22.30;99.90
37242;DHT22;23135;51.078;12.108;2023-07-29T07:31:52;22.30;99.90
37242;DHT22;23135;51.078;12.108;2023-07-29T07:34:21;22.30;99.90
37242;DHT22;23135;51.078;12.108;2023-07-29T07:36:47;22.30;99.90
37242;DHT22;23135;51.078;12.108;2023-07-29T07:39:13;22.30;99.90
37242;DHT22;23135;51.078;12.108;2023-07-29T07:41:39;22.40;99.90
37242;DHT22;23135;51.078;12.108;2023-07-29T07:44:04;22.60;99.90
37242;DHT22;23135;51.078;12.108;2023-07-29T07:46:30;22.70;99.90
37242;DHT22;23135;51.078;12.108;2023-07-29T07:48:55;22.90;99.90
37242;DHT22;23135;51.078;12.108;2023-07-29T07:51:21;23.00;99.90
37242;DHT22;23135;51.078;12.108;2023-07-29T07:53:46;23.20;99.90
37242;DHT22;23135;51.078;12.108;2023-07-29T07:56:12;23.30;99.90
37242;DHT22;23135;51.078;12.108;2023-07-29T07:58:38;23.10;99.90
37242;DHT22;23135;51.078;12.108;2023-07-29T08:01:05;22.80;99.90
37242;DHT22;23135;51.078;12.108;2023-07-29T08:03:32;22.70;99.90
37242;DHT22;23135;51.078;12.108;2023-07-29T08:05:58;22.40;99.90
37242;DHT22;23135;51.078;12.108;2023-07-29T08:08:25;22.00;99.90
37242;DHT22;23135;51.078;12.108;2023-07-29T08:10:51;21.90;99.90
37242;DHT22;23135;51.078;12.108;2023-07-29T08:13:17;21.90;99.90
37242;DHT22;23135;51.078;12.108;2023-07-29T08:15:49;21.90;99.90
37242;DHT22;23135;51.078;12.108;2023-07-29T08:18:15;22.00;99.90
37242;DHT22;23135;51.078;12.108;2023-07-29T08:20:41;22.00;99.90
37242;DHT22;23135;51.078;12.108;2023-07-29T08:23:07;22.00;99.90
37242;DHT22;23135;51.078;12.108;2023-07-29T08:25:33;22.00;99.90
37242;DHT22;23135;51.078;12.108;2023-07-29T08:27:58;22.00;99.90
37242;DHT22;23135;51.078;12.108;2023-07-29T08:30:24;22.20;99.90
37242;DHT22;23135;51.078;12.108;2023-07-29T08:32:49;22.40;99.90
37242;DHT22;23135;51.078;12.108;2023-07-29T08:35:15;22.40;99.90
37242;DHT22;23135;51.078;12.108;2023-07-29T08:37:41;22.40;99.90
37242;DHT22;23135;51.078;12.108;2023-07-29T08:40:07;22.50;99.90
37242;DHT22;23135;51.078;12.108;2023-07-29T08:42:34;22.60;99.90
37242;DHT22;23135;51.078;12.108;2023-07-29T08:45:07;22.80;99.90
37242;DHT22;23135;51.078;12.108;2023-07-29T08:47:36;23.10;99.90
37242;DHT22;23135;51.078;12.108;2023-07-29T08:50:03;23.10;99.90
37242;DHT22;23135;51.078;12.108;2023-07-29T08:52:29;23.30;99.90
37242;DHT22;23135;51.078;12.108;2023-07-29T08:54:58;23.20;99.90
37242;DHT22;23135;51.078;12.108;2023-07-29T08:57:24;23.30;99.90
37242;DHT22;23135;51.078;12.108;2023-07-29T08:59:50;23.30;99.90
37242;DHT22;23135;51.078;12.108;2023-07-29T09:02:16;23.20;99.90
37242;DHT22;23135;51.078;12.108;2023-07-29T09:04:42;23.00;99.90
37242;DHT22;23135;51.078;12.108;2023-07-29T09:07:08;23.10;99.90
37242;DHT22;23135;51.078;12.108;2023-07-29T09:09:35;23.20;99.90
37242;DHT22;23135;51.078;12.108;2023-07-29T09:12:01;23.20;99.90
37242;DHT22;23135;51.078;12.108;2023-07-29T09:14:26;23.20;99.90
37242;DHT22;23135;51.078;12.108;2023-07-29T09:16:53;23.00;99.90
37242;DHT22;23135;51.078;12.108;2023-07-29T09:19:19;23.00;99.90
37242;DHT22;23135;51.078;12.108;2023-07-29T09:21:46;23.00;99.90
37242;DHT22;23135;51.078;12.108;2023-07-29T09:24:12;22.90;99.90
37242;DHT22;23135;51.078;12.108;2023-07-29T09:26:49;22.90;99.90
37242;DHT22;23135;51.078;12.108;2023-07-29T09:29:15;23.10;99.90
37242;DHT22;23135;51.078;12.108;2023-07-29T09:31:40;23.10;99.90
37242;DHT22;23135;51.078;12.108;2023-07-29T09:34:06;23.10;99.90
37242;DHT22;23135;51.078;12.108;2023-07-29T09:36:33;23.10;99.90
37242;DHT22;23135;51.078;12.108;2023-07-29T09:38:59;23.20;99.90
37242;DHT22;23135;51.078;12.108;2023-07-29T09:41:26;23.10;99.90
37242;DHT22;23135;51.078;12.108;2023-07-29T09:43:57;23.20;99.90
37242;DHT22;23135;51.078;12.108;2023-07-29T09:46:24;23.20;99.90
37242;DHT22;23135;51.078;12.108;2023-07-29T09:48:53;23.20;99.90
37242;DHT22;23135;51.078;12.108;2023-07-29T09:51:19;23.30;99.90
37242;DHT22;23135;51.078;12.108;2023-07-29T09:53:47;23.40;99.90
37242;DHT22;23135;51.078;12.108;2023-07-29T09:56:13;23.50;99.90
37242;DHT22;23135;51.078;12.108;2023-07-29T09:58:39;23.50;99.90
37242;DHT22;23135;51.078;12.108;2023-07-29T10:01:06;23.50;99.90
37242;DHT22;23135;51.078;12.108;2023-07-29T10:03:33;23.50;99.90
37242;DHT22;23135;51.078;12.108;2023-07-29T10:06:06;23.50;99.90
37242;DHT22;23135;51.078;12.108;2023-07-29T10:08:33;23.50;99.90
37242;DHT22;23135;51.078;12.108;2023-07-29T10:11:01;23.30;99.90
37242;DHT22;23135;51.078;12.108;2023-07-29T10:13:28;23.30;99.90
37242;DHT22;23135;51.078;12.108;2023-07-29T10:15:54;23.30;99.90
37242;DHT22;23135;51.078;12.108;2023-07-29T10:18:22;23.30;99.90
37242;DHT22;23135;51.078;12.108;2023-07-29T10:20:51;23.50;99.90
37242;DHT22;23135;51.078;12.108;2023-07-29T10:23:18;23.60;99.90
37242;DHT22;23135;51.078;12.108;2023-07-29T10:25:49;23.50;99.90
37242;DHT22;23135;51.078;12.108;2023-07-29T10:28:15;23.50;99.90
37242;DHT22;23135;51.078;12.108;2023-07-29T10:30:42;23.60;99.90
37242;DHT22;23135;51.078;12.108;2023-07-29T10:33:08;23.90;99.90
37242;DHT22;23135;51.078;12.108;2023-07-29T10:35:36;23.70;99.90
37242;DHT22;23135;51.078;12.108;2023-07-29T10:38:03;23.70;99.90
37242;DHT22;23135;51.078;12.108;2023-07-29T10:40:55;23.60;99.90
37242;DHT22;23135;51.078;12.108;2023-07-29T10:43:26;23.80;99.90
37242;DHT22;23135;51.078;12.108;2023-07-29T10:45:56;23.90;99.90
37242;DHT22;23135;51.078;12.108;2023-07-29T10:53:56;24.10;99.90
37242;DHT22;23135;51.078;12.108;2023-07-29T10:56:36;24.10;99.90
37242;DHT22;23135;51.078;12.108;2023-07-29T11:01:39;23.80;99.90
37242;DHT22;23135;51.078;12.108;2023-07-29T11:17:38;23.60;99.90
37242;DHT22;23135;51.078;12.108;2023-07-29T11:20:06;23.50;99.90
37242;DHT22;23135;51.078;12.108;2023-07-29T11:22:36;23.40;99.90
37242;DHT22;23135;51.078;12.108;2023-07-29T11:25:02;23.50;99.90
37242;DHT22;23135;51.078;12.108;2023-07-29T11:27:28;23.40;99.90
37242;DHT22;23135;51.078;12.108;2023-07-29T11:30:01;23.40;99.90
37242;DHT22;23135;51.078;12.108;2023-07-29T11:32:27;23.40;99.90
37242;DHT22;23135;51.078;12.108;2023-07-29T11:34:53;23.40;99.90
37242;DHT22;23135;51.078;12.108;2023-07-29T11:37:19;23.50;99.90
37242;DHT22;23135;51.078;12.108;2023-07-29T11:39:46;23.60;99.90
37242;DHT22;23135;51.078;12.108;2023-07-29T11:42:13;23.50;99.90
37242;DHT22;23135;51.078;12.108;2023-07-29T11:44:39;23.60;99.90
37242;DHT22;23135;51.078;12.108;2023-07-29T11:47:09;23.70;99.90
37242;DHT22;23135;51.078;12.108;2023-07-29T11:49:35;24.20;99.90
37242;DHT22;23135;51.078;12.108;2023-07-29T11:52:02;24.10;99.90
37242;DHT22;23135;51.078;12.108;2023-07-29T11:54:28;23.90;99.90
37242;DHT22;23135;51.078;12.108;2023-07-29T11:56:55;23.80;99.90
37242;DHT22;23135;51.078;12.108;2023-07-29T11:59:21;23.80;99.90
37242;DHT22;23135;51.078;12.108;2023-07-29T12:01:47;23.80;99.90
37242;DHT22;23135;51.078;12.108;2023-07-29T12:04:13;24.20;99.90
37242;DHT22;23135;51.078;12.108;2023-07-29T12:06:39;24.40;99.90
37242;DHT22;23135;51.078;12.108;2023-07-29T12:09:05;24.50;99.90
37242;DHT22;23135;51.078;12.108;2023-07-29T12:11:32;24.70;99.90
37242;DHT22;23135;51.078;12.108;2023-07-29T12:13:59;25.20;99.90
37242;DHT22;23135;51.078;12.108;2023-07-29T12:16:25;25.00;99.90
37242;DHT22;23135;51.078;12.108;2023-07-29T12:18:51;24.60;99.90
37242;DHT22;23135;51.078;12.108;2023-07-29T12:21:18;24.60;99.90
37242;DHT22;23135;51.078;12.108;2023-07-29T12:23:44;24.60;99.90
37242;DHT22;23135;51.078;12.108;2023-07-29T12:26:10;25.40;99.90
37242;DHT22;23135;51.078;12.108;2023-07-29T12:28:36;26.20;99.90
37242;DHT22;23135;51.078;12.108;2023-07-29T12:31:01;25.90;99.90
37242;DHT22;23135;51.078;12.108;2023-07-29T12:33:37;25.50;99.90
37242;DHT22;23135;51.078;12.108;2023-07-29T12:36:07;25.60;99.90
37242;DHT22;23135;51.078;12.108;2023-07-29T12:38:33;25.80;99.90
37242;DHT22;23135;51.078;12.108;2023-07-29T12:40:59;26.30;99.90
37242;DHT22;23135;51.078;12.108;2023-07-29T12:43:25;26.40;99.90
37242;DHT22;23135;51.078;12.108;2023-07-29T12:45:51;26.30;99.90
37242;DHT22;23135;51.078;12.108;2023-07-29T12:48:17;26.70;99.90
37242;DHT22;23135;51.078;12.108;2023-07-29T12:50:43;26.80;99.90
37242;DHT22;23135;51.078;12.108;2023-07-29T12:53:09;26.50;99.90
37242;DHT22;23135;51.078;12.108;2023-07-29T12:55:36;27.10;99.90
37242;DHT22;23135;51.078;12.108;2023-07-29T12:58:02;27.60;99.40
37242;DHT22;23135;51.078;12.108;2023-07-29T13:00:27;27.30;99.00
37242;DHT22;23135;51.078;12.108;2023-07-29T13:02:53;27.30;98.70
37242;DHT22;23135;51.078;12.108;2023-07-29T13:05:19;26.70;98.20
37242;DHT22;23135;51.078;12.108;2023-07-29T13:07:45;27.00;99.00
37242;DHT22;23135;51.078;12.108;2023-07-29T13:10:11;27.50;99.00
37242;DHT22;23135;51.078;12.108;2023-07-29T13:12:36;27.30;98.50
37242;DHT22;23135;51.078;12.108;2023-07-29T13:15:02;27.20;99.00
37242;DHT22;23135;51.078;12.108;2023-07-29T13:17:28;27.30;98.40
37242;DHT22;23135;51.078;12.108;2023-07-29T13:19:53;27.80;97.40
37242;DHT22;23135;51.078;12.108;2023-07-29T13:22:21;27.90;96.60
37242;DHT22;23135;51.078;12.108;2023-07-29T13:24:46;28.00;96.20
37242;DHT22;23135;51.078;12.108;2023-07-29T13:27:12;28.20;96.10
37242;DHT22;23135;51.078;12.108;2023-07-29T13:29:39;28.40;95.50
37242;DHT22;23135;51.078;12.108;2023-07-29T13:32:05;28.40;95.00
37242;DHT22;23135;51.078;12.108;2023-07-29T13:34:31;28.70;94.20
37242;DHT22;23135;51.078;12.108;2023-07-29T13:36:56;28.50;94.60
37242;DHT22;23135;51.078;12.108;2023-07-29T13:39:22;29.00;94.60
37242;DHT22;23135;51.078;12.108;2023-07-29T13:41:48;28.90;94.10
37242;DHT22;23135;51.078;12.108;2023-07-29T13:44:13;27.90;93.50
37242;DHT22;23135;51.078;12.108;2023-07-29T13:46:39;27.80;94.60
37242;DHT22;23135;51.078;12.108;2023-07-29T13:49:04;27.60;93.70
37242;DHT22;23135;51.078;12.108;2023-07-29T13:51:30;27.10;94.50
37242;DHT22;23135;51.078;12.108;2023-07-29T13:53:56;26.90;94.90
37242;DHT22;23135;51.078;12.108;2023-07-29T13:56:22;26.80;95.40
37242;DHT22;23135;51.078;12.108;2023-07-29T13:58:47;26.50;96.00
37242;DHT22;23135;51.078;12.108;2023-07-29T14:01:13;26.40;95.90
37242;DHT22;23135;51.078;12.108;2023-07-29T14:03:39;26.20;95.30
37242;DHT22;23135;51.078;12.108;2023-07-29T14:06:05;26.00;95.30
37242;DHT22;23135;51.078;12.108;2023-07-29T14:08:30;26.00;96.30
37242;DHT22;23135;51.078;12.108;2023-07-29T14:10:56;25.80;96.10
37242;DHT22;23135;51.078;12.108;2023-07-29T14:13:21;25.80;96.60
37242;DHT22;23135;51.078;12.108;2023-07-29T14:15:47;25.80;96.50
37242;DHT22;23135;51.078;12.108;2023-07-29T14:18:13;25.70;96.20
37242;DHT22;23135;51.078;12.108;2023-07-29T14:20:38;25.60;96.30
37242;DHT22;23135;51.078;12.108;2023-07-29T14:23:04;25.50;96.90
37242;DHT22;23135;51.078;12.108;2023-07-29T14:25:31;25.40;96.90
37242;DHT22;23135;51.078;12.108;2023-07-29T14:27:57;25.40;96.00
37242;DHT22;23135;51.078;12.108;2023-07-29T14:30:22;25.20;96.30
37242;DHT22;23135;51.078;12.108;2023-07-29T14:32:48;25.20;96.90
37242;DHT22;23135;51.078;12.108;2023-07-29T14:35:14;25.10;96.80
37242;DHT22;23135;51.078;12.108;2023-07-29T14:37:39;25.00;97.10
37242;DHT22;23135;51.078;12.108;2023-07-29T14:40:05;25.00;97.40
37242;DHT22;23135;51.078;12.108;2023-07-29T14:42:31;24.80;97.90
37242;DHT22;23135;51.078;12.108;2023-07-29T14:44:57;24.60;98.50
37242;DHT22;23135;51.078;12.108;2023-07-29T14:47:22;24.50;99.20
37242;DHT22;23135;51.078;12.108;2023-07-29T14:49:48;24.00;96.70
37242;DHT22;23135;51.078;12.108;2023-07-29T14:52:14;23.10;98.10
37242;DHT22;23135;51.078;12.108;2023-07-29T14:54:40;22.00;99.90
37242;DHT22;23135;51.078;12.108;2023-07-29T14:57:06;20.90;99.90
37242;DHT22;23135;51.078;12.108;2023-07-29T14:59:32;19.90;99.90
37242;DHT22;23135;51.078;12.108;2023-07-29T15:01:58;19.40;99.90
37242;DHT22;23135;51.078;12.108;2023-07-29T15:04:24;19.10;99.90
37242;DHT22;23135;51.078;12.108;2023-07-29T15:06:50;19.00;99.90
37242;DHT22;23135;51.078;12.108;2023-07-29T15:09:15;18.90;99.90
37242;DHT22;23135;51.078;12.108;2023-07-29T15:11:41;18.80;99.90
37242;DHT22;23135;51.078;12.108;2023-07-29T15:14:06;18.70;99.90
37242;DHT22;23135;51.078;12.108;2023-07-29T15:16:32;18.60;99.90
37242;DHT22;23135;51.078;12.108;2023-07-29T15:19:01;18.50;99.90
37242;DHT22;23135;51.078;12.108;2023-07-29T15:21:27;18.50;99.90
37242;DHT22;23135;51.078;12.108;2023-07-29T15:23:52;18.50;99.90
37242;DHT22;23135;51.078;12.108;2023-07-29T15:26:18;18.40;99.90
37242;DHT22;23135;51.078;12.108;2023-07-29T15:28:43;18.40;99.90
37242;DHT22;23135;51.078;12.108;2023-07-29T15:31:09;18.30;99.90
37242;DHT22;23135;51.078;12.108;2023-07-29T15:33:36;18.30;99.90
37242;DHT22;23135;51.078;12.108;2023-07-29T15:36:02;18.20;99.90
37242;DHT22;23135;51.078;12.108;2023-07-29T15:38:27;18.20;99.90
37242;DHT22;23135;51.078;12.108;2023-07-29T15:40:53;18.30;99.90